sensor_id;sensor_type;location;lat;lon;timestamp;temperature;humidity
23520;DHT22;11936;50.820;4.336;2024-03-23T00:51:53;10.60;99.90
23520;DHT22;11936;50.820;4.336;2024-03-23T00:54:18;10.70;99.90
23520;DHT22;11936;50.820;4.336;2024-03-23T00:56:44;10.70;99.90
23520;DHT22;11936;50.820;4.336;2024-03-23T00:59:10;10.70;99.90
23520;DHT22;11936;50.820;4.336;2024-03-23T01:01:35;10.80;99.90
23520;DHT22;11936;50.820;4.336;2024-03-23T01:04:01;10.60;99.90
23520;DHT22;11936;50.820;4.336;2024-03-23T01:06:28;10.60;99.90
23520;DHT22;11936;50.820;4.336;2024-03-23T01:08:53;10.60;99.90
23520;DHT22;11936;50.820;4.336;2024-03-23T01:11:19;10.70;99.90
23520;DHT22;11936;50.820;4.336;2024-03-23T01:13:44;10.70;99.90
23520;DHT22;11936;50.820;4.336;2024-03-23T01:16:10;10.60;99.90
23520;DHT22;11936;50.820;4.336;2024-03-23T01:18:35;10.50;99.90
23520;DHT22;11936;50.820;4.336;2024-03-23T01:21:01;10.60;99.90
23520;DHT22;11936;50.820;4.336;2024-03-23T01:23:27;10.50;99.90
23520;DHT22;11936;50.820;4.336;2024-03-23T01:25:53;10.50;99.90
23520;DHT22;11936;50.820;4.336;2024-03-23T01:28:20;10.60;99.90
23520;DHT22;11936;50.820;4.336;2024-03-23T01:30:45;10.30;99.90
23520;DHT22;11936;50.820;4.336;2024-03-23T01:33:11;10.40;99.90
23520;DHT22;11936;50.820;4.336;2024-03-23T01:35:36;10.30;99.90
23520;DHT22;11936;50.820;4.336;2024-03-23T01:38:02;10.30;99.90
23520;DHT22;11936;50.820;4.336;2024-03-23T01:40:28;10.30;99.90
23520;DHT22;11936;50.820;4.336;2024-03-23T01:42:58;10.30;99.90
23520;DHT22;11936;50.820;4.336;2024-03-23T01:45:24;10.40;99.90
23520;DHT22;11936;50.820;4.336;2024-03-23T01:47:53;10.40;99.90
23520;DHT22;11936;50.820;4.336;2024-03-23T01:50:22;10.30;99.90
23520;DHT22;11936;50.820;4.336;2024-03-23T01:52:49;10.40;99.90
23520;DHT22;11936;50.820;4.336;2024-03-23T01:55:15;10.40;99.90
23520;DHT22;11936;50.820;4.336;2024-03-23T01:57:41;10.30;99.90
23520;DHT22;11936;50.820;4.336;2024-03-23T02:00:07;10.20;99.90
23520;DHT22;11936;50.820;4.336;2024-03-23T02:02:34;10.10;99.90
23520;DHT22;11936;50.820;4.336;2024-03-23T02:05:00;10.30;99.90
23520;DHT22;11936;50.820;4.336;2024-03-23T02:07:26;10.20;99.90
23520;DHT22;11936;50.820;4.336;2024-03-23T02:09:52;10.20;99.90
23520;DHT22;11936;50.820;4.336;2024-03-23T02:12:18;10.00;99.90
23520;DHT22;11936;50.820;4.336;2024-03-23T02:14:44;10.00;99.90
23520;DHT22;11936;50.820;4.336;2024-03-23T02:17:10;9.90;99.90
23520;DHT22;11936;50.820;4.336;2024-03-23T02:19:36;10.00;99.90
23520;DHT22;11936;50.820;4.336;2024-03-23T02:22:01;9.80;99.90
23520;DHT22;11936;50.820;4.336;2024-03-23T02:24:29;10.00;99.90
23520;DHT22;11936;50.820;4.336;2024-03-23T02:26:54;10.00;99.90
23520;DHT22;11936;50.820;4.336;2024-03-23T02:29:20;9.90;99.90
23520;DHT22;11936;50.820;4.336;2024-03-23T02:31:46;9.90;99.90
23520;DHT22;11936;50.820;4.336;2024-03-23T02:34:11;9.90;99.90
23520;DHT22;11936;50.820;4.336;2024-03-23T02:36:37;10.00;99.90
23520;DHT22;11936;50.820;4.336;2024-03-23T02:39:03;9.90;99.90
23520;DHT22;11936;50.820;4.336;2024-03-23T02:41:28;9.90;99.90
23520;DHT22;11936;50.820;4.336;2024-03-23T02:43:54;10.00;99.90
23520;DHT22;11936;50.820;4.336;2024-03-23T02:46:19;10.00;99.90
23520;DHT22;11936;50.820;4.336;2024-03-23T02:48:45;9.90;99.90
23520;DHT22;11936;50.820;4.336;2024-03-23T02:51:13;10.00;99.90
23520;DHT22;11936;50.820;4.336;2024-03-23T02:53:39;10.00;99.90
23520;DHT22;11936;50.820;4.336;2024-03-23T02:56:05;9.90;99.90
23520;DHT22;11936;50.820;4.336;2024-03-23T02:58:30;9.80;99.90
23520;DHT22;11936;50.820;4.336;2024-03-23T03:00:56;9.70;99.90
23520;DHT22;11936;50.820;4.336;2024-03-23T03:03:21;9.70;99.90
23520;DHT22;11936;50.820;4.336;2024-03-23T03:05:47;9.80;99.90
23520;DHT22;11936;50.820;4.336;2024-03-23T03:08:13;9.90;99.90
23520;DHT22;11936;50.820;4.336;2024-03-23T03:10:38;9.90;99.90
23520;DHT22;11936;50.820;4.336;2024-03-23T03:13:04;9.80;99.90
23520;DHT22;11936;50.820;4.336;2024-03-23T03:15:29;9.90;99.90
23520;DHT22;11936;50.820;4.336;2024-03-23T03:17:55;9.90;99.90
23520;DHT22;11936;50.820;4.336;2024-03-23T03:20:20;10.00;99.90
23520;DHT22;11936;50.820;4.336;2024-03-23T03:22:48;9.90;99.90
23520;DHT22;11936;50.820;4.336;2024-03-23T03:25:14;10.00;99.90
23520;DHT22;11936;50.820;4.336;2024-03-23T03:27:40;10.00;99.90
23520;DHT22;11936;50.820;4.336;2024-03-23T03:30:06;9.90;99.90
23520;DHT22;11936;50.820;4.336;2024-03-23T03:32:33;9.90;99.90
23520;DHT22;11936;50.820;4.336;2024-03-23T03:34:59;9.80;99.90
23520;DHT22;11936;50.820;4.336;2024-03-23T03:37:25;9.90;99.90
23520;DHT22;11936;50.820;4.336;2024-03-23T03:39:50;9.90;99.90
23520;DHT22;11936;50.820;4.336;2024-03-23T03:42:16;9.70;99.90
23520;DHT22;11936;50.820;4.336;2024-03-23T03:44:41;9.60;99.90
23520;DHT22;11936;50.820;4.336;2024-03-23T03:47:07;9.60;99.90
23520;DHT22;11936;50.820;4.336;2024-03-23T03:49:33;9.60;99.90
23520;DHT22;11936;50.820;4.336;2024-03-23T03:51:58;9.80;99.90
23520;DHT22;11936;50.820;4.336;2024-03-23T03:54:26;9.70;99.90
23520;DHT22;11936;50.820;4.336;2024-03-23T03:56:52;9.70;99.90
23520;DHT22;11936;50.820;4.336;2024-03-23T03:59:18;9.50;99.90
23520;DHT22;11936;50.820;4.336;2024-03-23T04:01:44;9.60;99.90
23520;DHT22;11936;50.820;4.336;2024-03-23T04:04:10;9.70;99.90
23520;DHT22;11936;50.820;4.336;2024-03-23T04:06:36;9.80;99.90
23520;DHT22;11936;50.820;4.336;2024-03-23T04:09:02;9.80;99.90
23520;DHT22;11936;50.820;4.336;2024-03-23T04:11:28;9.60;99.90
23520;DHT22;11936;50.820;4.336;2024-03-23T04:13:53;9.50;99.90
23520;DHT22;11936;50.820;4.336;2024-03-23T04:16:29;9.50;99.90
23520;DHT22;11936;50.820;4.336;2024-03-23T04:18:55;9.40;99.90
23520;DHT22;11936;50.820;4.336;2024-03-23T04:21:22;9.60;99.90
23520;DHT22;11936;50.820;4.336;2024-03-23T04:23:48;9.60;99.90
23520;DHT22;11936;50.820;4.336;2024-03-23T04:26:14;9.70;99.90
23520;DHT22;11936;50.820;4.336;2024-03-23T04:28:40;9.70;99.90
23520;DHT22;11936;50.820;4.336;2024-03-23T04:31:06;9.70;99.90
23520;DHT22;11936;50.820;4.336;2024-03-23T04:33:31;9.70;99.90
23520;DHT22;11936;50.820;4.336;2024-03-23T04:35:57;9.70;99.90
23520;DHT22;11936;50.820;4.336;2024-03-23T04:38:23;9.70;99.90
23520;DHT22;11936;50.820;4.336;2024-03-23T04:40:56;9.60;99.90
23520;DHT22;11936;50.820;4.336;2024-03-23T04:43:21;9.60;99.90
23520;DHT22;11936;50.820;4.336;2024-03-23T04:45:47;9.70;99.90
23520;DHT22;11936;50.820;4.336;2024-03-23T04:48:13;9.60;99.90
23520;DHT22;11936;50.820;4.336;2024-03-23T04:50:38;9.40;99.90
23520;DHT22;11936;50.820;4.336;2024-03-23T04:53:04;9.30;99.90
23520;DHT22;11936;50.820;4.336;2024-03-23T04:55:30;9.30;99.90
23520;DHT22;11936;50.820;4.336;2024-03-23T04:57:56;9.10;99.90
23520;DHT22;11936;50.820;4.336;2024-03-23T05:00:22;9.00;99.90
23520;DHT22;11936;50.820;4.336;2024-03-23T05:02:49;9.10;99.90
23520;DHT22;11936;50.820;4.336;2024-03-23T05:05:14;9.20;99.90
23520;DHT22;11936;50.820;4.336;2024-03-23T05:07:40;9.30;99.90
23520;DHT22;11936;50.820;4.336;2024-03-23T05:10:08;9.00;99.90
23520;DHT22;11936;50.820;4.336;2024-03-23T05:12:37;9.00;99.90
23520;DHT22;11936;50.820;4.336;2024-03-23T05:15:06;9.00;99.90
23520;DHT22;11936;50.820;4.336;2024-03-23T05:17:33;9.00;99.90
23520;DHT22;11936;50.820;4.336;2024-03-23T05:19:59;9.00;99.90
23520;DHT22;11936;50.820;4.336;2024-03-23T05:22:25;9.10;99.90
23520;DHT22;11936;50.820;4.336;2024-03-23T05:24:50;8.80;99.90
23520;DHT22;11936;50.820;4.336;2024-03-23T05:27:16;9.00;99.90
23520;DHT22;11936;50.820;4.336;2024-03-23T05:29:42;8.70;99.90
23520;DHT22;11936;50.820;4.336;2024-03-23T05:32:07;8.70;99.90
23520;DHT22;11936;50.820;4.336;2024-03-23T05:34:33;8.90;99.90
23520;DHT22;11936;50.820;4.336;2024-03-23T05:36:59;9.00;99.90
23520;DHT22;11936;50.820;4.336;2024-03-23T05:39:25;9.00;99.90
23520;DHT22;11936;50.820;4.336;2024-03-23T05:41:50;9.00;99.90
23520;DHT22;11936;50.820;4.336;2024-03-23T05:44:16;8.90;99.90
23520;DHT22;11936;50.820;4.336;2024-03-23T05:46:42;8.70;99.90
23520;DHT22;11936;50.820;4.336;2024-03-23T05:49:08;8.70;99.90
23520;DHT22;11936;50.820;4.336;2024-03-23T05:51:34;8.60;99.90
23520;DHT22;11936;50.820;4.336;2024-03-23T05:54:00;8.70;99.90
23520;DHT22;11936;50.820;4.336;2024-03-23T05:56:26;8.60;99.90
23520;DHT22;11936;50.820;4.336;2024-03-23T05:58:53;8.60;99.90
23520;DHT22;11936;50.820;4.336;2024-03-23T06:01:19;8.70;99.90
23520;DHT22;11936;50.820;4.336;2024-03-23T06:03:45;8.70;99.90
23520;DHT22;11936;50.820;4.336;2024-03-23T06:06:10;8.60;99.90
23520;DHT22;11936;50.820;4.336;2024-03-23T06:08:38;8.40;99.90
23520;DHT22;11936;50.820;4.336;2024-03-23T06:11:04;8.50;99.90
23520;DHT22;11936;50.820;4.336;2024-03-23T06:13:32;8.80;99.90
23520;DHT22;11936;50.820;4.336;2024-03-23T06:15:57;8.60;99.90
23520;DHT22;11936;50.820;4.336;2024-03-23T06:18:24;8.60;99.90
23520;DHT22;11936;50.820;4.336;2024-03-23T06:20:49;8.70;99.90
23520;DHT22;11936;50.820;4.336;2024-03-23T06:23:15;8.80;99.90
23520;DHT22;11936;50.820;4.336;2024-03-23T06:25:42;8.80;99.90
23520;DHT22;11936;50.820;4.336;2024-03-23T06:28:08;8.90;99.90
23520;DHT22;11936;50.820;4.336;2024-03-23T06:30:34;8.80;99.90
23520;DHT22;11936;50.820;4.336;2024-03-23T06:32:59;8.80;99.90
23520;DHT22;11936;50.820;4.336;2024-03-23T06:35:25;8.80;99.90
23520;DHT22;11936;50.820;4.336;2024-03-23T06:37:50;8.80;99.90
23520;DHT22;11936;50.820;4.336;2024-03-23T06:40:16;8.90;99.90
23520;DHT22;11936;50.820;4.336;2024-03-23T06:42:42;8.90;99.90
23520;DHT22;11936;50.820;4.336;2024-03-23T06:45:08;8.50;99.90
23520;DHT22;11936;50.820;4.336;2024-03-23T06:47:33;8.50;99.90
23520;DHT22;11936;50.820;4.336;2024-03-23T06:50:00;8.50;99.90
23520;DHT22;11936;50.820;4.336;2024-03-23T06:52:29;8.60;99.90
23520;DHT22;11936;50.820;4.336;2024-03-23T06:54:54;8.60;99.90
23520;DHT22;11936;50.820;4.336;2024-03-23T06:57:20;8.60;99.90
23520;DHT22;11936;50.820;4.336;2024-03-23T06:59:46;8.40;99.90
23520;DHT22;11936;50.820;4.336;2024-03-23T07:02:12;8.60;99.90
23520;DHT22;11936;50.820;4.336;2024-03-23T07:04:37;8.90;99.90
23520;DHT22;11936;50.820;4.336;2024-03-23T07:07:05;9.00;99.90
23520;DHT22;11936;50.820;4.336;2024-03-23T07:09:31;9.00;99.90
23520;DHT22;11936;50.820;4.336;2024-03-23T07:11:57;8.80;99.90
23520;DHT22;11936;50.820;4.336;2024-03-23T07:14:23;8.60;99.90
23520;DHT22;11936;50.820;4.336;2024-03-23T07:16:49;8.50;99.90
23520;DHT22;11936;50.820;4.336;2024-03-23T07:19:18;8.50;99.90
23520;DHT22;11936;50.820;4.336;2024-03-23T07:21:44;8.40;99.90
23520;DHT22;11936;50.820;4.336;2024-03-23T07:24:10;8.40;99.90
23520;DHT22;11936;50.820;4.336;2024-03-23T07:26:36;8.50;99.90
23520;DHT22;11936;50.820;4.336;2024-03-23T07:29:03;8.40;99.90
23520;DHT22;11936;50.820;4.336;2024-03-23T07:31:29;8.60;99.90
23520;DHT22;11936;50.820;4.336;2024-03-23T07:33:54;8.60;99.90
23520;DHT22;11936;50.820;4.336;2024-03-23T07:36:20;8.40;99.90
23520;DHT22;11936;50.820;4.336;2024-03-23T07:38:46;8.40;99.90
23520;DHT22;11936;50.820;4.336;2024-03-23T07:41:16;8.40;99.90
23520;DHT22;11936;50.820;4.336;2024-03-23T07:43:45;8.30;99.90
23520;DHT22;11936;50.820;4.336;2024-03-23T07:46:11;8.30;99.90
23520;DHT22;11936;50.820;4.336;2024-03-23T07:48:38;8.30;99.90
23520;DHT22;11936;50.820;4.336;2024-03-23T07:51:10;8.40;99.90
23520;DHT22;11936;50.820;4.336;2024-03-23T07:53:37;8.30;99.90
23520;DHT22;11936;50.820;4.336;2024-03-23T07:56:09;8.50;99.90
23520;DHT22;11936;50.820;4.336;2024-03-23T07:58:38;8.60;99.90
23520;DHT22;11936;50.820;4.336;2024-03-23T08:01:08;8.70;99.90
23520;DHT22;11936;50.820;4.336;2024-03-23T08:03:38;8.70;99.90
23520;DHT22;11936;50.820;4.336;2024-03-23T08:06:15;8.60;99.90
23520;DHT22;11936;50.820;4.336;2024-03-23T08:08:42;8.90;99.90
23520;DHT22;11936;50.820;4.336;2024-03-23T08:11:08;9.00;99.90
23520;DHT22;11936;50.820;4.336;2024-03-23T08:13:39;8.90;99.90
23520;DHT22;11936;50.820;4.336;2024-03-23T08:16:05;8.80;99.90
23520;DHT22;11936;50.820;4.336;2024-03-23T08:18:32;8.80;99.90
23520;DHT22;11936;50.820;4.336;2024-03-23T08:21:05;8.90;99.90
23520;DHT22;11936;50.820;4.336;2024-03-23T08:23:33;8.80;99.90
23520;DHT22;11936;50.820;4.336;2024-03-23T08:26:10;8.70;99.90
23520;DHT22;11936;50.820;4.336;2024-03-23T08:28:36;8.60;99.90
23520;DHT22;11936;50.820;4.336;2024-03-23T08:31:11;8.60;99.90
23520;DHT22;11936;50.820;4.336;2024-03-23T08:33:37;8.70;99.90
23520;DHT22;11936;50.820;4.336;2024-03-23T08:36:06;8.80;99.90
23520;DHT22;11936;50.820;4.336;2024-03-23T08:38:32;8.80;99.90
23520;DHT22;11936;50.820;4.336;2024-03-23T08:43:24;8.80;99.90
23520;DHT22;11936;50.820;4.336;2024-03-23T08:45:50;8.90;99.90
23520;DHT22;11936;50.820;4.336;2024-03-23T08:48:16;8.90;99.90
23520;DHT22;11936;50.820;4.336;2024-03-23T08:50:41;8.70;99.90
23520;DHT22;11936;50.820;4.336;2024-03-23T08:53:07;8.80;99.90
23520;DHT22;11936;50.820;4.336;2024-03-23T08:55:33;8.90;99.90
23520;DHT22;11936;50.820;4.336;2024-03-23T08:57:58;8.90;99.90
23520;DHT22;11936;50.820;4.336;2024-03-23T09:00:25;8.90;99.90
23520;DHT22;11936;50.820;4.336;2024-03-23T09:02:51;8.90;99.90
23520;DHT22;11936;50.820;4.336;2024-03-23T09:05:16;8.90;99.90
23520;DHT22;11936;50.820;4.336;2024-03-23T09:07:42;9.00;99.90
23520;DHT22;11936;50.820;4.336;2024-03-23T09:10:08;9.10;99.90
23520;DHT22;11936;50.820;4.336;2024-03-23T09:12:33;9.10;99.90
23520;DHT22;11936;50.820;4.336;2024-03-23T09:14:59;9.10;99.90
23520;DHT22;11936;50.820;4.336;2024-03-23T09:17:24;9.20;99.90
23520;DHT22;11936;50.820;4.336;2024-03-23T09:19:50;9.10;99.90
23520;DHT22;11936;50.820;4.336;2024-03-23T09:22:16;9.10;99.90
23520;DHT22;11936;50.820;4.336;2024-03-23T09:24:41;9.10;99.90
23520;DHT22;11936;50.820;4.336;2024-03-23T09:27:07;9.10;99.90
23520;DHT22;11936;50.820;4.336;2024-03-23T09:29:33;9.10;99.90
23520;DHT22;11936;50.820;4.336;2024-03-23T09:31:58;9.10;99.90
23520;DHT22;11936;50.820;4.336;2024-03-23T09:34:24;9.00;99.90
23520;DHT22;11936;50.820;4.336;2024-03-23T09:36:52;9.10;99.90
23520;DHT22;11936;50.820;4.336;2024-03-23T09:39:19;9.10;99.90
23520;DHT22;11936;50.820;4.336;2024-03-23T09:41:45;9.00;99.90
23520;DHT22;11936;50.820;4.336;2024-03-23T09:44:10;9.10;99.90
23520;DHT22;11936;50.820;4.336;2024-03-23T09:46:36;9.00;99.90
23520;DHT22;11936;50.820;4.336;2024-03-23T09:49:07;9.10;99.90
23520;DHT22;11936;50.820;4.336;2024-03-23T09:51:35;9.30;99.90
23520;DHT22;11936;50.820;4.336;2024-03-23T09:54:01;9.30;99.90
23520;DHT22;11936;50.820;4.336;2024-03-23T09:56:27;9.50;99.90
23520;DHT22;11936;50.820;4.336;2024-03-23T09:59:03;9.60;99.90
23520;DHT22;11936;50.820;4.336;2024-03-23T10:01:31;9.50;99.90
23520;DHT22;11936;50.820;4.336;2024-03-23T10:03:57;9.30;99.90
23520;DHT22;11936;50.820;4.336;2024-03-23T10:06:23;9.30;99.90
23520;DHT22;11936;50.820;4.336;2024-03-23T10:08:51;9.50;99.90
23520;DHT22;11936;50.820;4.336;2024-03-23T10:11:18;9.60;99.90
23520;DHT22;11936;50.820;4.336;2024-03-23T10:13:44;9.60;99.90
23520;DHT22;11936;50.820;4.336;2024-03-23T10:16:12;9.60;99.90
23520;DHT22;11936;50.820;4.336;2024-03-23T10:18:45;9.70;99.90
23520;DHT22;11936;50.820;4.336;2024-03-23T10:21:11;9.50;99.90
23520;DHT22;11936;50.820;4.336;2024-03-23T10:23:41;9.40;99.90
23520;DHT22;11936;50.820;4.336;2024-03-23T10:26:18;9.30;99.90
23520;DHT22;11936;50.820;4.336;2024-03-23T10:28:55;9.20;99.90
23520;DHT22;11936;50.820;4.336;2024-03-23T10:31:29;9.30;99.90
23520;DHT22;11936;50.820;4.336;2024-03-23T10:33:55;9.30;99.90
23520;DHT22;11936;50.820;4.336;2024-03-23T10:36:22;9.20;99.90
23520;DHT22;11936;50.820;4.336;2024-03-23T10:38:50;9.40;99.90
23520;DHT22;11936;50.820;4.336;2024-03-23T10:41:16;9.40;99.90
23520;DHT22;11936;50.820;4.336;2024-03-23T10:43:43;9.40;99.90
23520;DHT22;11936;50.820;4.336;2024-03-23T10:46:10;9.30;99.90
23520;DHT22;11936;50.820;4.336;2024-03-23T10:48:35;9.30;99.90
23520;DHT22;11936;50.820;4.336;2024-03-23T10:51:01;9.40;99.90
23520;DHT22;11936;50.820;4.336;2024-03-23T10:53:28;9.50;99.90
23520;DHT22;11936;50.820;4.336;2024-03-23T10:55:55;9.50;99.90
23520;DHT22;11936;50.820;4.336;2024-03-23T10:58:28;9.60;99.90
23520;DHT22;11936;50.820;4.336;2024-03-23T11:00:56;9.80;99.90
23520;DHT22;11936;50.820;4.336;2024-03-23T11:03:33;9.80;99.90
23520;DHT22;11936;50.820;4.336;2024-03-23T11:06:00;9.70;99.90
23520;DHT22;11936;50.820;4.336;2024-03-23T11:08:37;9.90;99.90
23520;DHT22;11936;50.820;4.336;2024-03-23T11:11:18;9.70;99.90
23520;DHT22;11936;50.820;4.336;2024-03-23T11:13:49;9.70;99.90
23520;DHT22;11936;50.820;4.336;2024-03-23T11:16:25;9.70;99.90
23520;DHT22;11936;50.820;4.336;2024-03-23T11:19:39;9.80;99.90
23520;DHT22;11936;50.820;4.336;2024-03-23T11:22:05;9.80;99.90
23520;DHT22;11936;50.820;4.336;2024-03-23T11:24:32;9.80;99.90
23520;DHT22;11936;50.820;4.336;2024-03-23T11:26:57;9.90;99.90
23520;DHT22;11936;50.820;4.336;2024-03-23T11:29:29;9.80;99.90
23520;DHT22;11936;50.820;4.336;2024-03-23T11:31:55;9.80;99.90
23520;DHT22;11936;50.820;4.336;2024-03-23T11:34:21;9.80;99.90
23520;DHT22;11936;50.820;4.336;2024-03-23T11:36:48;9.70;99.90
23520;DHT22;11936;50.820;4.336;2024-03-23T11:39:14;9.70;99.90
23520;DHT22;11936;50.820;4.336;2024-03-23T11:41:52;9.60;99.90
23520;DHT22;11936;50.820;4.336;2024-03-23T11:44:22;9.60;99.90
23520;DHT22;11936;50.820;4.336;2024-03-23T11:46:51;9.70;99.90
23520;DHT22;11936;50.820;4.336;2024-03-23T11:49:25;9.70;99.90
23520;DHT22;11936;50.820;4.336;2024-03-23T11:51:52;9.70;99.90
23520;DHT22;11936;50.820;4.336;2024-03-23T11:54:26;9.90;99.90
23520;DHT22;11936;50.820;4.336;2024-03-23T11:59:38;9.80;99.90
23520;DHT22;11936;50.820;4.336;2024-03-23T12:02:12;9.80;99.90
23520;DHT22;11936;50.820;4.336;2024-03-23T12:04:41;9.60;99.90
23520;DHT22;11936;50.820;4.336;2024-03-23T12:09:36;9.80;99.90
23520;DHT22;11936;50.820;4.336;2024-03-23T12:12:14;9.80;99.90
23520;DHT22;11936;50.820;4.336;2024-03-23T12:14:44;9.90;99.90
23520;DHT22;11936;50.820;4.336;2024-03-23T12:17:13;10.10;99.90
23520;DHT22;11936;50.820;4.336;2024-03-23T12:19:40;9.90;99.90
23520;DHT22;11936;50.820;4.336;2024-03-23T12:22:07;9.70;99.90
23520;DHT22;11936;50.820;4.336;2024-03-23T12:24:34;9.70;99.90
23520;DHT22;11936;50.820;4.336;2024-03-23T12:27:05;9.70;99.90
23520;DHT22;11936;50.820;4.336;2024-03-23T12:29:34;9.70;99.90
23520;DHT22;11936;50.820;4.336;2024-03-23T12:32:00;9.60;99.90
23520;DHT22;11936;50.820;4.336;2024-03-23T12:34:27;9.40;99.90
23520;DHT22;11936;50.820;4.336;2024-03-23T12:36:53;9.40;99.90
23520;DHT22;11936;50.820;4.336;2024-03-23T12:39:19;9.40;99.90
23520;DHT22;11936;50.820;4.336;2024-03-23T12:41:47;9.50;99.90
23520;DHT22;11936;50.820;4.336;2024-03-23T12:44:13;9.70;99.90
23520;DHT22;11936;50.820;4.336;2024-03-23T12:46:39;9.80;99.90
23520;DHT22;11936;50.820;4.336;2024-03-23T12:49:05;9.90;99.90
23520;DHT22;11936;50.820;4.336;2024-03-23T12:51:31;10.10;99.90
23520;DHT22;11936;50.820;4.336;2024-03-23T12:53:57;10.20;99.90
23520;DHT22;11936;50.820;4.336;2024-03-23T12:56:23;10.30;99.90
23520;DHT22;11936;50.820;4.336;2024-03-23T12:58:48;10.50;99.90
23520;DHT22;11936;50.820;4.336;2024-03-23T13:01:18;10.40;99.90
23520;DHT22;11936;50.820;4.336;2024-03-23T13:03:48;10.40;99.90
23520;DHT22;11936;50.820;4.336;2024-03-23T13:06:15;10.40;99.90
23520;DHT22;11936;50.820;4.336;2024-03-23T13:08:41;10.50;99.90
23520;DHT22;11936;50.820;4.336;2024-03-23T13:11:07;10.70;99.90
23520;DHT22;11936;50.820;4.336;2024-03-23T13:13:36;10.70;99.90
23520;DHT22;11936;50.820;4.336;2024-03-23T13:16:02;10.90;99.90
23520;DHT22;11936;50.820;4.336;2024-03-23T13:18:31;10.80;99.90
23520;DHT22;11936;50.820;4.336;2024-03-23T13:20:58;10.60;99.90
23520;DHT22;11936;50.820;4.336;2024-03-23T13:23:23;10.40;99.90
23520;DHT22;11936;50.820;4.336;2024-03-23T13:25:55;10.50;99.90
23520;DHT22;11936;50.820;4.336;2024-03-23T13:28:22;10.50;99.90
23520;DHT22;11936;50.820;4.336;2024-03-23T13:30:55;10.50;99.90
23520;DHT22;11936;50.820;4.336;2024-03-23T13:33:21;10.50;99.90
23520;DHT22;11936;50.820;4.336;2024-03-23T13:35:53;10.60;99.90
23520;DHT22;11936;50.820;4.336;2024-03-23T13:38:20;10.70;99.90
23520;DHT22;11936;50.820;4.336;2024-03-23T13:41:04;10.90;99.90
23520;DHT22;11936;50.820;4.336;2024-03-23T13:43:32;11.00;99.90
23520;DHT22;11936;50.820;4.336;2024-03-23T13:45:58;10.90;99.90
23520;DHT22;11936;50.820;4.336;2024-03-23T13:48:26;10.70;99.90
23520;DHT22;11936;50.820;4.336;2024-03-23T13:50:59;10.60;99.90
23520;DHT22;11936;50.820;4.336;2024-03-23T13:53:24;10.40;99.90
23520;DHT22;11936;50.820;4.336;2024-03-23T13:55:50;10.50;99.90
23520;DHT22;11936;50.820;4.336;2024-03-23T13:58:16;10.50;99.90
23520;DHT22;11936;50.820;4.336;2024-03-23T14:00:42;10.70;99.90
23520;DHT22;11936;50.820;4.336;2024-03-23T14:03:11;10.40;99.90
23520;DHT22;11936;50.820;4.336;2024-03-23T14:05:37;10.40;99.90
23520;DHT22;11936;50.820;4.336;2024-03-23T14:08:10;10.40;99.90
23520;DHT22;11936;50.820;4.336;2024-03-23T14:10:36;10.50;99.90
23520;DHT22;11936;50.820;4.336;2024-03-23T14:13:02;10.40;99.90
23520;DHT22;11936;50.820;4.336;2024-03-23T14:15:31;10.50;99.90
23520;DHT22;11936;50.820;4.336;2024-03-23T14:17:57;10.50;99.90
23520;DHT22;11936;50.820;4.336;2024-03-23T14:20:22;10.40;99.90
23520;DHT22;11936;50.820;4.336;2024-03-23T14:22:49;10.40;99.90
23520;DHT22;11936;50.820;4.336;2024-03-23T14:25:15;10.50;99.90
23520;DHT22;11936;50.820;4.336;2024-03-23T14:27:41;10.50;99.90
23520;DHT22;11936;50.820;4.336;2024-03-23T14:30:07;10.40;99.90
23520;DHT22;11936;50.820;4.336;2024-03-23T14:32:33;10.60;99.90
23520;DHT22;11936;50.820;4.336;2024-03-23T14:35:03;10.50;99.90
23520;DHT22;11936;50.820;4.336;2024-03-23T14:37:29;10.50;99.90
23520;DHT22;11936;50.820;4.336;2024-03-23T14:39:58;10.50;99.90
23520;DHT22;11936;50.820;4.336;2024-03-23T14:42:23;10.60;99.90
23520;DHT22;11936;50.820;4.336;2024-03-23T14:44:50;10.70;99.90
23520;DHT22;11936;50.820;4.336;2024-03-23T14:47:15;10.80;99.90
23520;DHT22;11936;50.820;4.336;2024-03-23T14:49:43;10.80;99.90
23520;DHT22;11936;50.820;4.336;2024-03-23T14:52:18;10.90;99.90
23520;DHT22;11936;50.820;4.336;2024-03-23T14:54:45;11.00;99.90
23520;DHT22;11936;50.820;4.336;2024-03-23T14:57:11;10.90;99.90
23520;DHT22;11936;50.820;4.336;2024-03-23T14:59:37;10.90;99.90
23520;DHT22;11936;50.820;4.336;2024-03-23T15:02:07;11.00;99.90
23520;DHT22;11936;50.820;4.336;2024-03-23T15:04:33;10.90;99.90
23520;DHT22;11936;50.820;4.336;2024-03-23T15:06:58;11.00;99.90
23520;DHT22;11936;50.820;4.336;2024-03-23T15:09:24;11.10;99.90
23520;DHT22;11936;50.820;4.336;2024-03-23T15:11:50;11.20;99.90
23520;DHT22;11936;50.820;4.336;2024-03-23T15:14:15;11.10;99.90
23520;DHT22;11936;50.820;4.336;2024-03-23T15:16:41;11.10;99.90
23520;DHT22;11936;50.820;4.336;2024-03-23T15:19:08;11.20;99.90
23520;DHT22;11936;50.820;4.336;2024-03-23T15:21:34;11.30;99.90
23520;DHT22;11936;50.820;4.336;2024-03-23T15:23:59;11.20;99.90
23520;DHT22;11936;50.820;4.336;2024-03-23T15:26:25;11.10;99.90
23520;DHT22;11936;50.820;4.336;2024-03-23T15:28:51;11.00;99.90
23520;DHT22;11936;50.820;4.336;2024-03-23T15:31:23;10.80;99.90
23520;DHT22;11936;50.820;4.336;2024-03-23T15:33:48;11.00;99.90
23520;DHT22;11936;50.820;4.336;2024-03-23T15:36:14;10.90;99.90
23520;DHT22;11936;50.820;4.336;2024-03-23T15:38:40;10.80;99.90
23520;DHT22;11936;50.820;4.336;2024-03-23T15:41:05;10.90;99.90
23520;DHT22;11936;50.820;4.336;2024-03-23T15:43:31;10.90;99.90
23520;DHT22;11936;50.820;4.336;2024-03-23T15:46:01;11.10;99.90
23520;DHT22;11936;50.820;4.336;2024-03-23T15:48:30;11.30;99.90
23520;DHT22;11936;50.820;4.336;2024-03-23T15:51:01;11.40;99.90
23520;DHT22;11936;50.820;4.336;2024-03-23T15:53:27;11.40;99.90
23520;DHT22;11936;50.820;4.336;2024-03-23T15:56:03;11.50;99.90
23520;DHT22;11936;50.820;4.336;2024-03-23T15:58:33;11.70;99.90
23520;DHT22;11936;50.820;4.336;2024-03-23T16:01:00;11.80;99.90
23520;DHT22;11936;50.820;4.336;2024-03-23T16:03:26;11.80;99.60
23520;DHT22;11936;50.820;4.336;2024-03-23T16:05:56;11.90;99.40
23520;DHT22;11936;50.820;4.336;2024-03-23T16:08:23;11.90;99.40
23520;DHT22;11936;50.820;4.336;2024-03-23T16:10:49;11.80;99.30
23520;DHT22;11936;50.820;4.336;2024-03-23T16:13:15;11.80;99.00
23520;DHT22;11936;50.820;4.336;2024-03-23T16:15:41;11.80;98.70
23520;DHT22;11936;50.820;4.336;2024-03-23T16:18:07;11.60;99.10
23520;DHT22;11936;50.820;4.336;2024-03-23T16:20:33;11.50;98.90
23520;DHT22;11936;50.820;4.336;2024-03-23T16:23:02;11.60;98.90
23520;DHT22;11936;50.820;4.336;2024-03-23T16:25:28;11.70;99.90
23520;DHT22;11936;50.820;4.336;2024-03-23T16:27:54;11.80;99.10
23520;DHT22;11936;50.820;4.336;2024-03-23T16:30:20;11.80;98.70
23520;DHT22;11936;50.820;4.336;2024-03-23T16:32:46;11.80;98.00
23520;DHT22;11936;50.820;4.336;2024-03-23T16:35:13;11.70;98.20
23520;DHT22;11936;50.820;4.336;2024-03-23T16:37:39;11.60;98.60